Time;durP1;ratioP1;P1;durP2;ratioP2;P2;SDS_P1;SDS_P2;PMS_P1;PMS_P2;Temp;Humidity;BMP_temperature;BMP_pressure;BME280_temperature;BME280_humidity;BME280_pressure;Samples;Min_cycle;Max_cycle;Signal;HPM_P1;HPM_P2
2021/08/22 00:00:28;;;;;;;1999.90;999.90;;;19.50;99.90;;;;;;5054524;28;20181;-67
2021/08/22 00:02:54;;;;;;;1999.90;999.90;;;19.40;99.90;;;;;;5054402;28;20758;-67
2021/08/22 00:05:20;;;;;;;1999.90;999.90;;;19.30;99.90;;;;;;5053942;28;20167;-67
2021/08/22 00:07:46;;;;;;;1999.90;999.90;;;19.30;99.90;;;;;;5054072;28;20221;-68
2021/08/22 00:10:11;;;;;;;1999.90;999.90;;;19.20;99.90;;;;;;5053950;28;20668;-67
2021/08/22 00:12:38;;;;;;;1999.90;999.90;;;19.20;99.90;;;;;;5054059;28;20232;-69
2021/08/22 00:15:05;;;;;;;1999.90;999.90;;;19.10;99.90;;;;;;5053959;28;20175;-68
2021/08/22 00:17:30;;;;;;;1999.90;999.90;;;19.10;99.90;;;;;;5054100;28;20423;-68
2021/08/22 00:19:56;;;;;;;1999.90;999.90;;;19.10;99.90;;;;;;5053966;28;20402;-66
2021/08/22 00:22:22;;;;;;;1999.90;999.90;;;19.10;99.90;;;;;;5053872;28;20225;-69
2021/08/22 00:24:47;;;;;;;1999.90;999.90;;;19.10;99.90;;;;;;5053569;28;20266;-67
2021/08/22 00:27:13;;;;;;;1999.90;999.90;;;19.10;99.90;;;;;;5053721;28;20210;-67
2021/08/22 00:29:39;;;;;;;1999.90;999.90;;;19.00;99.90;;;;;;5053993;28;20705;-67
2021/08/22 00:32:05;;;;;;;1999.90;999.90;;;19.00;99.90;;;;;;5053643;28;20232;-67
2021/08/22 00:34:31;;;;;;;1999.90;999.90;;;19.00;99.90;;;;;;5053449;28;20186;-68
2021/08/22 00:36:57;;;;;;;1999.90;999.90;;;19.00;99.90;;;;;;5053572;28;20459;-68
2021/08/22 00:39:24;;;;;;;1999.90;999.90;;;18.90;99.90;;;;;;5053511;28;20185;-67
2021/08/22 00:41:50;;;;;;;1999.90;999.90;;;18.90;99.90;;;;;;5053539;28;20167;-68
2021/08/22 00:44:16;;;;;;;1999.90;999.90;;;18.80;99.90;;;;;;5053200;28;20461;-67
2021/08/22 00:46:41;;;;;;;1999.90;999.90;;;18.70;99.90;;;;;;5053316;28;20235;-68
2021/08/22 00:49:07;;;;;;;1999.90;999.90;;;18.70;99.90;;;;;;5053503;28;20238;-68
2021/08/22 00:51:34;;;;;;;1999.90;999.90;;;18.70;99.90;;;;;;5053396;28;20199;-68
2021/08/22 00:54:00;;;;;;;1999.90;999.90;;;18.70;99.90;;;;;;5053030;28;20411;-67
2021/08/22 00:56:26;;;;;;;1999.90;999.90;;;18.70;99.90;;;;;;5053110;28;21211;-67
2021/08/22 00:58:52;;;;;;;1999.90;999.90;;;18.80;99.90;;;;;;5053205;28;20492;-68
2021/08/22 01:01:21;;;;;;;1999.90;999.90;;;18.80;99.90;;;;;;5053256;28;20553;-68
2021/08/22 01:04:11;;;;;;;1999.90;999.90;;;18.90;99.90;;;;;;5052954;28;20167;-67
2021/08/22 01:06:49;;;;;;;1999.90;999.90;;;19.00;99.90;;;;;;5052986;28;20776;-68
2021/08/22 01:09:25;;;;;;;1999.90;999.90;;;19.00;99.90;;;;;;5053023;28;20771;-68
2021/08/22 01:11:51;;;;;;;1999.90;999.90;;;19.10;99.90;;;;;;5052850;28;20549;-68
2021/08/22 01:14:24;;;;;;;1999.90;999.90;;;19.10;99.90;;;;;;5052576;28;20405;-68
2021/08/22 01:16:54;;;;;;;1999.90;999.90;;;19.10;99.90;;;;;;5052797;28;20428;-67
2021/08/22 01:19:34;;;;;;;1999.90;999.90;;;19.10;99.90;;;;;;5052802;28;20903;-68
2021/08/22 01:22:04;;;;;;;1999.90;999.90;;;19.10;99.90;;;;;;5052808;28;20418;-68
2021/08/22 01:24:30;;;;;;;1999.90;999.90;;;19.20;99.90;;;;;;5052388;28;20414;-67
2021/08/22 01:26:59;;;;;;;1999.90;999.90;;;19.20;99.90;;;;;;5052606;28;20437;-68
2021/08/22 01:29:46;;;;;;;1999.90;999.90;;;19.20;99.90;;;;;;5052602;28;20606;-67
2021/08/22 01:32:13;;;;;;;1999.90;999.90;;;19.10;99.90;;;;;;5052537;28;20450;-68
2021/08/22 01:34:40;;;;;;;1999.90;999.90;;;19.20;99.90;;;;;;5052428;28;20412;-68
2021/08/22 01:37:06;;;;;;;1999.90;999.90;;;19.20;99.90;;;;;;5052521;28;20399;-67
2021/08/22 01:39:35;;;;;;;1999.90;999.90;;;19.30;99.90;;;;;;5052406;28;20432;-68
2021/08/22 01:42:01;;;;;;;1999.90;999.90;;;19.30;99.90;;;;;;5052394;28;20484;-68
2021/08/22 01:44:28;;;;;;;1999.90;999.90;;;19.40;99.90;;;;;;5052093;28;20466;-67
2021/08/22 01:46:53;;;;;;;1999.90;999.90;;;19.40;99.90;;;;;;5052399;28;20550;-69
2021/08/22 01:49:20;;;;;;;1999.90;999.90;;;19.50;99.90;;;;;;5052289;28;20930;-67
2021/08/22 01:51:46;;;;;;;1999.90;999.90;;;19.50;99.90;;;;;;5052218;28;20193;-69
2021/08/22 01:54:12;;;;;;;1999.90;999.90;;;19.50;99.90;;;;;;5051903;28;20406;-68
2021/08/22 01:56:39;;;;;;;1999.90;999.90;;;19.50;99.90;;;;;;5052096;28;20432;-67
2021/08/22 01:59:06;;;;;;;1999.90;999.90;;;19.40;99.90;;;;;;5051691;28;20173;-68
2021/08/22 02:01:32;;;;;;;1999.90;999.90;;;19.50;99.90;;;;;;5052114;28;20468;-67
2021/08/22 02:04:03;;;;;;;1999.90;999.90;;;19.40;99.90;;;;;;5051814;28;20412;-68
2021/08/22 02:07:02;;;;;;;1999.90;999.90;;;19.40;99.90;;;;;;5051977;28;20431;-67
2021/08/22 02:09:36;;;;;;;1999.90;999.90;;;19.30;99.90;;;;;;5051967;28;20413;-68
2021/08/22 02:12:07;;;;;;;1999.90;999.90;;;19.30;99.90;;;;;;5052041;28;20606;-67
2021/08/22 02:14:35;;;;;;;1999.90;999.90;;;19.30;99.90;;;;;;5051717;28;20453;-67
2021/08/22 02:17:03;;;;;;;1999.90;999.90;;;19.30;99.90;;;;;;5051905;28;20928;-67
2021/08/22 02:19:31;;;;;;;1999.90;999.90;;;19.30;99.90;;;;;;5051792;28;20940;-68
2021/08/22 02:21:57;;;;;;;1999.90;999.90;;;19.30;99.90;;;;;;5051883;28;20404;-68
2021/08/22 02:24:24;;;;;;;1999.90;999.90;;;19.20;99.90;;;;;;5051555;28;20441;-68
2021/08/22 02:26:49;;;;;;;1999.90;999.90;;;19.10;99.90;;;;;;5051738;28;20933;-67
2021/08/22 02:29:15;;;;;;;1999.90;999.90;;;19.10;99.90;;;;;;5051807;28;20407;-68
2021/08/22 02:31:40;;;;;;;1999.90;999.90;;;19.00;99.90;;;;;;5051645;28;20208;-69
2021/08/22 02:34:06;;;;;;;1999.90;999.90;;;19.00;99.90;;;;;;5051514;28;20176;-67
2021/08/22 02:36:32;;;;;;;1999.90;999.90;;;18.80;99.90;;;;;;5051678;28;20189;-67
2021/08/22 02:38:57;;;;;;;1999.90;999.90;;;18.80;99.90;;;;;;5051809;28;20199;-67
2021/08/22 02:41:23;;;;;;;1999.90;999.90;;;18.80;99.90;;;;;;5051701;28;20169;-68
2021/08/22 02:43:49;;;;;;;1999.90;999.90;;;18.70;99.90;;;;;;5051542;28;20167;-68
2021/08/22 02:46:15;;;;;;;1999.90;999.90;;;18.70;99.90;;;;;;5051558;28;20434;-68
2021/08/22 02:48:40;;;;;;;1999.90;999.90;;;18.80;99.90;;;;;;5051572;28;20174;-68
2021/08/22 02:51:06;;;;;;;1999.90;999.90;;;18.70;99.90;;;;;;5051793;28;20179;-68
2021/08/22 02:53:32;;;;;;;1999.90;999.90;;;18.70;99.90;;;;;;5051482;28;20171;-68
2021/08/22 02:55:58;;;;;;;1999.90;999.90;;;18.80;99.90;;;;;;5051417;28;20669;-68
2021/08/22 02:58:23;;;;;;;1999.90;999.90;;;18.80;99.90;;;;;;5051598;28;20656;-68
2021/08/22 03:00:49;;;;;;;1999.90;999.90;;;18.70;99.90;;;;;;5051529;28;20433;-68
2021/08/22 03:03:15;;;;;;;1999.90;999.90;;;18.70;99.90;;;;;;5051452;28;20184;-68
2021/08/22 03:05:41;;;;;;;1999.90;999.90;;;18.70;99.90;;;;;;5051178;28;20162;-68
2021/08/22 03:08:07;;;;;;;1999.90;999.90;;;18.70;99.90;;;;;;5051531;28;20203;-68
2021/08/22 03:10:33;;;;;;;1999.90;999.90;;;18.60;99.90;;;;;;5052774;28;20429;-68
2021/08/22 03:12:59;;;;;;;1999.90;999.90;;;18.60;99.90;;;;;;5055135;28;20449;-68
2021/08/22 03:15:24;;;;;;;1999.90;999.90;;;18.60;99.90;;;;;;5054989;28;20211;-68
2021/08/22 03:17:50;;;;;;;1999.90;999.90;;;18.60;99.90;;;;;;5055041;28;20217;-68
2021/08/22 03:20:16;;;;;;;1999.90;999.90;;;18.60;99.90;;;;;;5055109;28;20161;-68
2021/08/22 03:22:43;;;;;;;1999.90;999.90;;;18.60;99.90;;;;;;5055207;28;20530;-68
2021/08/22 03:25:09;;;;;;;1999.90;999.90;;;18.60;99.90;;;;;;5054825;28;20408;-68
2021/08/22 03:27:35;;;;;;;1999.90;999.90;;;18.60;99.90;;;;;;5054926;28;20798;-68
2021/08/22 03:30:01;;;;;;;1999.90;999.90;;;18.60;99.90;;;;;;5054966;28;20412;-68
2021/08/22 03:32:26;;;;;;;1999.90;999.90;;;18.50;99.90;;;;;;5054850;28;20192;-68
2021/08/22 03:34:52;;;;;;;1999.90;999.90;;;18.60;99.90;;;;;;5054597;28;20170;-68
2021/08/22 03:37:18;;;;;;;1999.90;999.90;;;18.50;99.90;;;;;;5054913;28;20339;-68
2021/08/22 03:39:43;;;;;;;1999.90;999.90;;;18.50;99.90;;;;;;5054798;28;20156;-68
2021/08/22 03:42:09;;;;;;;1999.90;999.90;;;18.40;99.90;;;;;;5054665;28;20711;-68
2021/08/22 03:44:35;;;;;;;1999.90;999.90;;;18.40;99.90;;;;;;5054436;28;20171;-68
2021/08/22 03:47:00;;;;;;;1999.90;999.90;;;18.40;99.90;;;;;;5054586;28;20290;-69
2021/08/22 03:49:26;;;;;;;1999.90;999.90;;;18.40;99.90;;;;;;5054548;28;20175;-68
2021/08/22 03:51:51;;;;;;;1999.90;999.90;;;18.40;99.90;;;;;;5054470;28;20196;-68
2021/08/22 03:54:17;;;;;;;1999.90;999.90;;;18.40;99.90;;;;;;5063607;22;20270;-67
2021/08/22 03:56:42;;;;;;;1999.90;999.90;;;18.30;99.90;;;;;;5034975;28;20169;-66
2021/08/22 03:59:09;;;;;;;1999.90;999.90;;;18.30;99.90;;;;;;5034914;28;20223;-67
2021/08/22 04:01:35;;;;;;;1999.90;999.90;;;18.30;99.90;;;;;;5034687;28;20194;-66
2021/08/22 04:04:02;;;;;;;1999.90;999.90;;;18.30;99.90;;;;;;5034521;28;20896;-67
2021/08/22 04:06:28;;;;;;;1999.90;999.90;;;18.30;99.90;;;;;;5034647;28;20891;-67
2021/08/22 04:08:54;;;;;;;1999.90;999.90;;;18.30;99.90;;;;;;5034806;28;20406;-67
2021/08/22 04:11:19;;;;;;;1999.90;999.90;;;18.30;99.90;;;;;;5034600;28;20457;-66
2021/08/22 04:13:45;;;;;;;1999.90;999.90;;;18.30;99.90;;;;;;5034422;28;20209;-66
2021/08/22 04:16:11;;;;;;;1999.90;999.90;;;18.20;99.90;;;;;;5034372;28;20179;-66
2021/08/22 04:18:36;;;;;;;1999.90;999.90;;;18.20;99.90;;;;;;5034692;28;20177;-67
2021/08/22 04:21:02;;;;;;;1999.90;999.90;;;18.20;99.90;;;;;;5033816;28;20215;-66
2021/08/22 04:23:28;;;;;;;1999.90;999.90;;;18.20;99.90;;;;;;5034149;28;20198;-67
2021/08/22 04:25:53;;;;;;;1999.90;999.90;;;18.20;99.90;;;;;;5034002;28;20177;-67
2021/08/22 04:28:20;;;;;;;1999.90;999.90;;;18.20;99.90;;;;;;5034363;28;20207;-67
2021/08/22 04:30:46;;;;;;;1999.90;999.90;;;18.10;99.90;;;;;;5034110;28;20218;-66
2021/08/22 04:33:12;;;;;;;1999.90;999.90;;;18.10;99.90;;;;;;5034363;28;20976;-66
2021/08/22 04:35:37;;;;;;;1999.90;999.90;;;18.10;99.90;;;;;;5033741;28;20197;-67
2021/08/22 04:38:03;;;;;;;1999.90;999.90;;;18.00;99.90;;;;;;5034269;28;20168;-66
2021/08/22 04:40:29;;;;;;;1999.90;999.90;;;18.00;99.90;;;;;;5034476;28;20166;-66
2021/08/22 04:42:56;;;;;;;1999.90;999.90;;;18.00;99.90;;;;;;5034434;28;20424;-67
2021/08/22 04:45:21;;;;;;;1999.90;999.90;;;18.00;99.90;;;;;;5033505;28;20434;-66
2021/08/22 04:47:47;;;;;;;1999.90;999.90;;;18.00;99.90;;;;;;5033938;28;20785;-66
2021/08/22 04:50:12;;;;;;;1999.90;999.90;;;18.00;99.90;;;;;;5034273;28;20223;-67
2021/08/22 04:52:38;;;;;;;1999.90;999.90;;;18.00;99.90;;;;;;5034260;28;20196;-66
2021/08/22 04:55:05;;;;;;;1999.90;999.90;;;18.00;99.90;;;;;;5033743;28;20215;-66
2021/08/22 04:57:31;;;;;;;1999.90;999.90;;;18.00;99.90;;;;;;5033800;28;20190;-66
2021/08/22 04:59:56;;;;;;;1999.90;999.90;;;18.00;99.90;;;;;;5033748;28;20404;-66
2021/08/22 05:02:22;;;;;;;1999.90;999.90;;;18.10;99.90;;;;;;5033665;28;20423;-66
2021/08/22 05:04:48;;;;;;;1999.90;999.90;;;18.10;99.90;;;;;;5033032;28;20229;-67
2021/08/22 05:07:13;;;;;;;1999.90;999.90;;;18.10;99.90;;;;;;5033625;28;20539;-67
2021/08/22 05:09:39;;;;;;;1999.90;999.90;;;18.10;99.90;;;;;;5033407;28;20223;-67
2021/08/22 05:12:05;;;;;;;1999.90;999.90;;;18.20;99.90;;;;;;5033483;28;20203;-66
2021/08/22 05:14:34;;;;;;;1999.90;999.90;;;18.20;99.90;;;;;;5032943;28;20548;-66
2021/08/22 05:17:00;;;;;;;1999.90;999.90;;;18.20;99.90;;;;;;5033363;28;20413;-67
2021/08/22 05:19:25;;;;;;;1999.90;999.90;;;18.20;99.90;;;;;;5033409;28;20414;-66
2021/08/22 05:21:51;;;;;;;1999.90;999.90;;;18.20;99.90;;;;;;5033382;28;20912;-66
2021/08/22 05:24:17;;;;;;;1999.90;999.90;;;18.30;99.90;;;;;;5032989;28;20200;-67
2021/08/22 05:26:42;;;;;;;1999.90;999.90;;;18.30;99.90;;;;;;5033562;28;20173;-66
2021/08/22 05:29:08;;;;;;;1999.90;999.90;;;18.30;99.90;;;;;;5033269;28;20180;-66
2021/08/22 05:31:34;;;;;;;1999.90;999.90;;;18.30;99.90;;;;;;5033342;28;20614;-66
2021/08/22 05:33:59;;;;;;;1999.90;999.90;;;18.40;99.90;;;;;;5032058;28;20203;-67
2021/08/22 05:36:25;;;;;;;1999.90;999.90;;;18.30;99.90;;;;;;5033008;28;20168;-66
2021/08/22 05:38:52;;;;;;;1999.90;999.90;;;18.30;99.90;;;;;;5033052;28;20196;-66
2021/08/22 05:41:18;;;;;;;1999.90;999.90;;;18.40;99.90;;;;;;5033005;28;20168;-67
2021/08/22 05:43:44;;;;;;;1999.90;999.90;;;18.40;99.90;;;;;;5032522;28;20428;-67
2021/08/22 05:46:10;;;;;;;1999.90;999.90;;;18.40;99.90;;;;;;5032909;28;20411;-66
2021/08/22 05:48:36;;;;;;;1999.90;999.90;;;18.40;99.90;;;;;;5032845;28;20180;-67
2021/08/22 05:51:02;;;;;;;1999.90;999.90;;;18.40;99.90;;;;;;5032819;28;20828;-66
2021/08/22 05:53:28;;;;;;;1999.90;999.90;;;18.40;99.90;;;;;;5032474;28;20541;-66
2021/08/22 05:55:55;;;;;;;1999.90;999.90;;;18.40;99.90;;;;;;5032325;28;20924;-66
2021/08/22 05:58:21;;;;;;;1999.90;999.90;;;18.50;99.90;;;;;;5032744;28;20575;-66
2021/08/22 06:00:47;;;;;;;1999.90;999.90;;;18.50;99.90;;;;;;5032787;28;20399;-67
2021/08/22 06:03:12;;;;;;;1999.90;999.90;;;18.60;99.90;;;;;;5032816;28;20170;-66
2021/08/22 06:05:38;;;;;;;1999.90;999.90;;;18.60;99.90;;;;;;5032413;28;20260;-67
2021/08/22 06:08:04;;;;;;;1999.90;999.90;;;18.70;99.90;;;;;;5032564;28;20173;-67
2021/08/22 06:10:30;;;;;;;1999.90;999.90;;;18.80;99.90;;;;;;5032706;28;20170;-66
2021/08/22 06:12:55;;;;;;;1999.90;999.90;;;18.80;99.90;;;;;;5032430;28;20465;-66
2021/08/22 06:15:21;;;;;;;1999.90;999.90;;;18.90;99.90;;;;;;5032198;28;20195;-66
2021/08/22 06:17:46;;;;;;;1999.90;999.90;;;18.90;99.90;;;;;;5032402;28;20163;-67
2021/08/22 06:20:12;;;;;;;1999.90;999.90;;;19.00;99.90;;;;;;5032425;28;20257;-66
2021/08/22 06:22:38;;;;;;;1999.90;999.90;;;19.10;99.90;;;;;;5032356;28;20223;-66
2021/08/22 06:25:04;;;;;;;1999.90;999.90;;;19.10;99.90;;;;;;5031978;28;20428;-66
2021/08/22 06:27:30;;;;;;;1999.90;999.90;;;19.20;99.90;;;;;;5032361;28;20209;-67
2021/08/22 06:29:55;;;;;;;1999.90;999.90;;;19.20;99.90;;;;;;5032147;28;20409;-67
2021/08/22 06:32:21;;;;;;;1999.90;999.90;;;19.20;99.90;;;;;;5032218;28;20202;-66
2021/08/22 06:34:46;;;;;;;1999.90;999.90;;;19.30;99.90;;;;;;5031862;28;20187;-66
2021/08/22 06:37:12;;;;;;;1999.90;999.90;;;19.40;99.90;;;;;;5032264;28;20160;-66
2021/08/22 06:39:42;;;;;;;1999.90;999.90;;;19.40;99.90;;;;;;5032205;28;20221;-66
2021/08/22 06:42:08;;;;;;;1999.90;999.90;;;19.50;99.90;;;;;;5032277;28;20216;-67
2021/08/22 06:44:34;;;;;;;1999.90;999.90;;;19.40;99.90;;;;;;5033358;28;20506;-67
2021/08/22 06:47:00;;;;;;;1999.90;999.90;;;19.40;99.90;;;;;;5036498;28;20412;-67
2021/08/22 06:49:26;;;;;;;1999.90;999.90;;;19.40;99.90;;;;;;5036314;28;20499;-66
2021/08/22 06:51:52;;;;;;;1999.90;999.90;;;19.40;99.90;;;;;;5035921;28;20533;-68
2021/08/22 06:54:18;;;;;;;1999.90;999.90;;;19.30;99.90;;;;;;5035665;28;20199;-66
2021/08/22 06:56:43;;;;;;;1999.90;999.90;;;19.20;99.90;;;;;;5035957;28;20868;-66
2021/08/22 06:59:09;;;;;;;1999.90;999.90;;;19.10;99.90;;;;;;5035856;28;20628;-67
2021/08/22 07:01:36;;;;;;;1999.90;999.90;;;19.10;99.90;;;;;;5036225;28;20526;-67
2021/08/22 07:04:01;;;;;;;1999.90;999.90;;;19.00;99.90;;;;;;5036009;28;20186;-67
2021/08/22 07:06:27;;;;;;;1999.90;999.90;;;18.90;99.90;;;;;;5036664;28;20414;-67
2021/08/22 07:08:52;;;;;;;1999.90;999.90;;;19.00;99.90;;;;;;5036413;28;20224;-67
2021/08/22 07:11:18;;;;;;;1999.90;999.90;;;19.00;99.90;;;;;;5018435;28;20592;-66
2021/08/22 07:13:43;;;;;;;1999.90;999.90;;;19.00;99.90;;;;;;5035805;28;20197;-67
2021/08/22 07:16:09;;;;;;;1999.90;999.90;;;19.00;99.90;;;;;;5035993;28;20640;-67
2021/08/22 07:18:35;;;;;;;1999.90;999.90;;;18.90;99.90;;;;;;5036583;28;20259;-66
2021/08/22 07:21:02;;;;;;;1999.90;999.90;;;18.80;99.90;;;;;;5036227;28;20169;-67
2021/08/22 07:23:28;;;;;;;1999.90;999.90;;;18.80;99.90;;;;;;5035970;28;20262;-67
2021/08/22 07:25:53;;;;;;;1999.90;999.90;;;18.80;99.90;;;;;;5035799;28;20443;-67
2021/08/22 07:28:19;;;;;;;1999.90;999.90;;;18.80;99.90;;;;;;5035882;28;20219;-67
2021/08/22 07:30:45;;;;;;;1999.90;999.90;;;18.80;99.90;;;;;;5036005;28;20549;-67
2021/08/22 07:33:10;;;;;;;1999.90;999.90;;;18.90;99.90;;;;;;5035800;28;20286;-67
2021/08/22 07:35:36;;;;;;;1999.90;999.90;;;19.00;99.90;;;;;;5035408;28;20202;-67
2021/08/22 07:38:02;;;;;;;1999.90;999.90;;;19.10;99.90;;;;;;5035377;28;20546;-67
2021/08/22 07:40:27;;;;;;;1999.90;999.90;;;19.10;99.90;;;;;;5035706;28;20161;-67
2021/08/22 07:42:53;;;;;;;1999.90;999.90;;;19.20;99.90;;;;;;5035531;28;20487;-67
2021/08/22 07:45:19;;;;;;;1999.90;999.90;;;19.20;99.90;;;;;;5035235;28;20193;-67
2021/08/22 07:47:44;;;;;;;1999.90;999.90;;;19.30;99.90;;;;;;5036028;28;20235;-67
2021/08/22 07:50:10;;;;;;;1999.90;999.90;;;19.30;99.90;;;;;;5035596;28;20178;-67
2021/08/22 07:52:36;;;;;;;1999.90;999.90;;;19.40;99.90;;;;;;5035237;28;20210;-67
2021/08/22 07:55:02;;;;;;;1999.90;999.90;;;19.40;99.90;;;;;;5034901;28;20458;-66
2021/08/22 07:57:27;;;;;;;1999.90;999.90;;;19.50;99.90;;;;;;5034896;28;20431;-67
2021/08/22 07:59:53;;;;;;;1999.90;999.90;;;19.50;99.90;;;;;;5035061;28;20219;-67
2021/08/22 08:02:20;;;;;;;1999.90;999.90;;;19.60;99.90;;;;;;5035173;28;20247;-67
2021/08/22 08:04:45;;;;;;;1999.90;999.90;;;19.80;99.90;;;;;;5034910;28;20677;-67
2021/08/22 08:07:11;;;;;;;1999.90;999.90;;;20.00;99.90;;;;;;5035466;28;20459;-66
2021/08/22 08:09:37;;;;;;;1999.90;999.90;;;20.00;99.90;;;;;;5035148;28;20673;-66
2021/08/22 08:12:02;;;;;;;1999.90;999.90;;;20.10;99.90;;;;;;5034794;28;20286;-67
2021/08/22 08:14:28;;;;;;;1999.90;999.90;;;20.20;99.90;;;;;;5034530;28;20195;-67
2021/08/22 08:16:54;;;;;;;1999.90;999.90;;;20.20;99.90;;;;;;5035238;28;20182;-67
2021/08/22 08:19:19;;;;;;;1999.90;999.90;;;20.10;99.90;;;;;;5034764;28;20182;-67
2021/08/22 08:21:45;;;;;;;1999.90;999.90;;;20.10;99.90;;;;;;5034576;28;20178;-66
2021/08/22 08:24:10;;;;;;;1999.90;999.90;;;20.20;99.90;;;;;;5034514;28;20199;-67
2021/08/22 08:26:36;;;;;;;1999.90;999.90;;;20.20;99.90;;;;;;5034352;28;20262;-67
2021/08/22 08:29:02;;;;;;;1999.90;999.90;;;20.30;99.90;;;;;;5034498;28;20200;-67
2021/08/22 08:31:28;;;;;;;1999.90;999.90;;;20.50;99.90;;;;;;5034066;28;20214;-65
2021/08/22 08:33:53;;;;;;;1999.90;999.90;;;20.70;99.90;;;;;;5033471;28;20912;-65
2021/08/22 08:36:19;;;;;;;1999.90;999.90;;;21.00;99.90;;;;;;5033789;28;20175;-66
2021/08/22 08:38:44;;;;;;;1999.90;999.90;;;21.30;99.90;;;;;;5033753;28;20626;-67
2021/08/22 08:41:10;;;;;;;1999.90;999.90;;;21.50;99.90;;;;;;5033619;28;20166;-66
2021/08/22 08:43:36;;;;;;;1999.90;999.90;;;21.70;99.90;;;;;;5033508;28;20176;-65
2021/08/22 08:46:11;;;;;;;1999.90;999.90;;;21.80;99.90;;;;;;5033354;28;20173;-66
2021/08/22 08:48:38;;;;;;;1999.90;999.90;;;22.00;99.90;;;;;;5033428;28;20192;-66
2021/08/22 08:51:12;;;;;;;1999.90;999.90;;;22.10;99.90;;;;;;5033403;28;20817;-66
2021/08/22 08:53:49;;;;;;;1999.90;999.90;;;22.10;99.90;;;;;;5033133;28;20452;-66
2021/08/22 08:56:25;;;;;;;1999.90;999.90;;;21.90;99.90;;;;;;5033378;28;20392;-66
2021/08/22 08:58:51;;;;;;;1999.90;999.90;;;21.80;99.90;;;;;;5033321;28;20732;-67
2021/08/22 09:01:16;;;;;;;1999.90;999.90;;;21.70;99.90;;;;;;5033208;28;20382;-65
2021/08/22 09:04:07;;;;;;;1999.90;999.90;;;21.60;99.90;;;;;;5033066;28;20641;-66
2021/08/22 09:07:10;;;;;;;1999.90;999.90;;;21.40;99.90;;;;;;5033217;28;20165;-67
2021/08/22 09:09:59;;;;;;;1999.90;999.90;;;21.40;99.90;;;;;;5033105;28;20404;-66
2021/08/22 09:12:40;;;;;;;1999.90;999.90;;;21.30;99.90;;;;;;5032948;28;20448;-67
2021/08/22 09:15:20;;;;;;;1999.90;999.90;;;21.40;99.90;;;;;;5032656;28;20460;-66
2021/08/22 09:18:35;;;;;;;1999.90;999.90;;;21.40;99.90;;;;;;5032929;28;20412;-65
2021/08/22 09:21:38;;;;;;;1999.90;999.90;;;21.40;99.90;;;;;;5031398;28;20438;-65
2021/08/22 09:24:31;;;;;;;1999.90;999.90;;;21.50;99.90;;;;;;5031406;28;20422;-65
2021/08/22 09:27:33;;;;;;;1999.90;999.90;;;21.60;99.90;;;;;;5031611;28;20412;-65
2021/08/22 09:29:59;;;;;;;1999.90;999.90;;;21.60;99.90;;;;;;5031841;28;20403;-65
2021/08/22 09:33:02;;;;;;;1999.90;999.90;;;21.40;99.90;;;;;;5031880;28;20512;-65
2021/08/22 09:36:05;;;;;;;1999.90;999.90;;;21.30;99.90;;;;;;5028973;28;20189;-64
2021/08/22 09:39:09;;;;;;;1999.90;999.90;;;21.20;99.90;;;;;;5030266;28;20403;-65
2021/08/22 09:42:07;;;;;;;1999.90;999.90;;;21.10;99.90;;;;;;5030596;28;20793;-65
2021/08/22 09:45:10;;;;;;;1999.90;999.90;;;21.20;99.90;;;;;;5029654;28;20393;-63
2021/08/22 09:48:27;;;;;;;1999.90;999.90;;;21.40;99.90;;;;;;5030286;28;20403;-64
2021/08/22 09:51:08;;;;;;;1999.90;999.90;;;21.60;99.90;;;;;;5030146;28;20414;-65
2021/08/22 09:53:58;;;;;;;1999.90;999.90;;;21.80;99.90;;;;;;5029530;28;20469;-65
2021/08/22 09:56:29;;;;;;;1999.90;999.90;;;22.00;99.90;;;;;;5029676;28;20404;-65
2021/08/22 09:59:31;;;;;;;1999.90;999.90;;;21.90;99.90;;;;;;5029954;28;20397;-65
2021/08/22 10:02:25;;;;;;;1999.90;999.90;;;21.80;99.90;;;;;;5029770;28;20749;-65
2021/08/22 10:05:15;;;;;;;1999.90;999.90;;;21.60;99.90;;;;;;5030908;28;20407;-65
2021/08/22 10:08:06;;;;;;;1999.90;999.90;;;21.40;99.90;;;;;;5030645;28;20378;-66
2021/08/22 10:10:31;;;;;;;1999.90;999.90;;;21.40;99.90;;;;;;5030532;28;20384;-65
2021/08/22 10:12:59;;;;;;;1999.90;999.90;;;21.40;99.90;;;;;;5030094;28;20537;-65
2021/08/22 10:15:24;;;;;;;1999.90;999.90;;;21.40;99.90;;;;;;5030158;28;20598;-66
2021/08/22 10:17:50;;;;;;;1999.90;999.90;;;21.40;99.90;;;;;;5030422;28;20411;-66
2021/08/22 10:20:17;;;;;;;1999.90;999.90;;;21.40;99.90;;;;;;5029301;28;20172;-65
2021/08/22 10:22:44;;;;;;;1999.90;999.90;;;21.50;99.90;;;;;;5029692;28;20643;-65
2021/08/22 10:25:12;;;;;;;1999.90;999.90;;;21.70;99.90;;;;;;5029660;28;20493;-66
2021/08/22 10:27:41;;;;;;;1999.90;999.90;;;21.90;99.90;;;;;;5029073;28;20417;-65
2021/08/22 10:30:14;;;;;;;1999.90;999.90;;;22.20;99.90;;;;;;5030333;28;20949;-66
2021/08/22 10:32:58;;;;;;;1999.90;999.90;;;22.40;99.90;;;;;;5029612;28;20486;-66
2021/08/22 10:35:27;;;;;;;1999.90;999.90;;;22.50;99.90;;;;;;5028486;28;20402;-66
2021/08/22 10:37:53;;;;;;;1999.90;999.90;;;22.70;99.90;;;;;;5029607;28;20432;-66
2021/08/22 10:40:21;;;;;;;1999.90;999.90;;;22.80;99.90;;;;;;5029095;28;20435;-65
2021/08/22 10:42:48;;;;;;;1999.90;999.90;;;22.70;99.90;;;;;;5028616;28;20185;-66
2021/08/22 10:45:45;;;;;;;1999.90;999.90;;;22.50;99.90;;;;;;5029389;28;20433;-66
2021/08/22 10:48:22;;;;;;;1999.90;999.90;;;22.20;99.90;;;;;;5030024;28;20459;-66
2021/08/22 10:50:57;;;;;;;1999.90;999.90;;;22.20;99.90;;;;;;5029212;28;20401;-65
2021/08/22 10:53:33;;;;;;;1999.90;999.90;;;22.20;99.90;;;;;;5029124;28;20459;-66
2021/08/22 10:55:59;;;;;;;1999.90;999.90;;;22.20;99.90;;;;;;5029309;28;20841;-66
2021/08/22 10:58:56;;;;;;;1999.90;999.90;;;22.50;99.90;;;;;;5029109;28;20376;-66
2021/08/22 11:01:23;;;;;;;1999.90;999.90;;;22.80;99.90;;;;;;5029291;28;20388;-66
2021/08/22 11:04:17;;;;;;;1999.90;999.90;;;22.90;99.90;;;;;;5029224;28;20433;-66
2021/08/22 11:07:12;;;;;;;1999.90;999.90;;;22.90;99.90;;;;;;5029875;28;20412;-66
2021/08/22 11:09:46;;;;;;;1999.90;999.90;;;22.90;99.90;;;;;;5021076;28;20411;-66
2021/08/22 11:12:22;;;;;;;1999.90;999.90;;;22.90;99.90;;;;;;5029262;28;20452;-66
2021/08/22 11:14:47;;;;;;;1999.90;999.90;;;23.00;99.90;;;;;;5029178;28;20406;-66
2021/08/22 11:17:13;;;;;;;1999.90;999.90;;;22.90;99.90;;;;;;5029852;28;20738;-65
2021/08/22 11:19:39;;;;;;;1999.90;999.90;;;22.90;99.90;;;;;;5028940;28;20182;-65
2021/08/22 11:22:20;;;;;;;1999.90;999.90;;;22.80;99.90;;;;;;5029293;28;20177;-66
2021/08/22 11:24:51;;;;;;;1999.90;999.90;;;22.90;99.90;;;;;;5029149;28;20191;-66
2021/08/22 11:27:21;;;;;;;1999.90;999.90;;;22.90;99.90;;;;;;5029003;28;20415;-66
2021/08/22 11:30:01;;;;;;;1999.90;999.90;;;22.90;99.90;;;;;;5029870;28;20466;-66
2021/08/22 11:32:28;;;;;;;1999.90;999.90;;;22.90;99.90;;;;;;5032289;28;20424;-66
2021/08/22 11:34:55;;;;;;;1999.90;999.90;;;22.90;99.90;;;;;;5032222;28;20403;-66
2021/08/22 11:37:22;;;;;;;1999.90;999.90;;;22.90;99.90;;;;;;5033176;28;20399;-66
2021/08/22 11:39:48;;;;;;;1999.90;999.90;;;22.70;99.90;;;;;;5032559;28;20453;-65
2021/08/22 11:42:21;;;;;;;1999.90;999.90;;;22.60;99.90;;;;;;5032205;28;20405;-66
2021/08/22 11:44:47;;;;;;;1999.90;999.90;;;22.40;99.90;;;;;;5032601;28;20925;-66
2021/08/22 11:47:13;;;;;;;1999.90;999.90;;;22.20;99.90;;;;;;5032857;28;20412;-66
2021/08/22 11:49:39;;;;;;;1999.90;999.90;;;22.10;99.90;;;;;;5032539;28;20682;-65
2021/08/22 11:52:05;;;;;;;1999.90;999.90;;;22.20;99.90;;;;;;5032890;28;20193;-67
2021/08/22 11:54:34;;;;;;;1999.90;999.90;;;22.40;99.90;;;;;;5031835;28;20206;-66
2021/08/22 11:57:17;;;;;;;1999.90;999.90;;;22.70;99.90;;;;;;5032360;28;20412;-66
2021/08/22 11:59:43;;;;;;;1999.90;999.90;;;23.30;99.90;;;;;;5032531;28;20388;-66
2021/08/22 12:02:25;;;;;;;1999.90;999.90;;;24.00;99.90;;;;;;5032409;28;20442;-66
2021/08/22 12:05:13;;;;;;;1999.90;999.90;;;24.30;99.90;;;;;;5031545;28;20198;-66
2021/08/22 12:07:41;;;;;;;1999.90;999.90;;;23.90;99.90;;;;;;5026121;28;20432;-66
2021/08/22 12:10:07;;;;;;;1999.90;999.90;;;23.70;99.90;;;;;;5032757;28;20406;-66